createdAt,value
2022-12-08T00:01:03.760Z,8.35
2022-12-08T00:03:30.703Z,8.98
2022-12-08T00:06:16.071Z,8.63
2022-12-08T00:11:28.779Z,9.75
2022-12-08T00:13:55.445Z,8.15
2022-12-08T00:16:22.527Z,9.02
2022-12-08T00:18:49.518Z,10.35
2022-12-08T00:21:16.218Z,7.88
2022-12-08T00:23:42.982Z,9.73
2022-12-08T00:26:09.735Z,10.07
2022-12-08T00:28:36.377Z,14.23
2022-12-08T00:31:10.632Z,10.48
2022-12-08T00:33:37.571Z,11.23
2022-12-08T00:36:12.787Z,13.18
2022-12-08T00:38:40.309Z,9.07
2022-12-08T00:41:39.913Z,11.93
2022-12-08T00:44:07.871Z,9.70
2022-12-08T00:46:34.826Z,7.78
2022-12-08T00:49:01.678Z,13.02
2022-12-08T00:51:28.349Z,22.65
2022-12-08T00:53:55.279Z,16.48
2022-12-08T00:56:22.075Z,12.75
2022-12-08T00:58:48.793Z,11.88
2022-12-08T01:01:15.699Z,11.57
2022-12-08T01:03:42.872Z,14.63
2022-12-08T01:06:10.073Z,11.48
2022-12-08T01:08:37.326Z,10.18
2022-12-08T01:11:05.324Z,12.10
2022-12-08T01:13:31.975Z,13.10
2022-12-08T01:15:58.729Z,10.00
2022-12-08T01:18:27.353Z,13.32
2022-12-08T01:20:54.072Z,11.30
2022-12-08T01:23:20.807Z,9.23
2022-12-08T01:25:47.468Z,12.60
2022-12-08T01:28:14.181Z,12.98
2022-12-08T01:30:41.236Z,12.90
2022-12-08T01:33:07.942Z,13.45
2022-12-08T01:35:34.818Z,12.40
2022-12-08T01:38:01.520Z,9.30
2022-12-08T01:40:28.259Z,11.55
2022-12-08T01:42:54.923Z,11.35
2022-12-08T01:45:28.338Z,11.15
2022-12-08T01:47:58.613Z,13.27
2022-12-08T01:50:25.648Z,12.48
2022-12-08T01:52:59.037Z,15.10
2022-12-08T01:55:32.177Z,11.32
2022-12-08T01:58:03.571Z,9.90
2022-12-08T02:00:30.319Z,10.10
2022-12-08T02:03:05.727Z,12.52
2022-12-08T02:05:37.790Z,15.13
2022-12-08T02:08:08.027Z,12.98
2022-12-08T02:10:37.022Z,11.35
2022-12-08T02:13:05.271Z,12.40
2022-12-08T02:16:00.371Z,10.85
2022-12-08T02:18:36.111Z,15.23
2022-12-08T02:21:31.753Z,18.83
2022-12-08T02:26:46.970Z,15.38
2022-12-08T02:29:22.691Z,12.73
2022-12-08T02:32:07.460Z,13.75
2022-12-08T02:34:58.091Z,16.83
2022-12-08T02:37:50.672Z,13.50
2022-12-08T02:40:30.935Z,16.58
2022-12-08T02:43:03.154Z,14.38
2022-12-08T02:45:45.049Z,13.80
2022-12-08T02:48:12.227Z,12.15
2022-12-08T02:50:38.895Z,16.05
2022-12-08T02:55:56.352Z,18.42
2022-12-08T02:58:35.389Z,15.55
2022-12-08T03:01:11.053Z,16.40
2022-12-08T03:03:43.892Z,13.52
2022-12-08T03:06:30.897Z,16.30
2022-12-08T03:09:12.276Z,16.15
2022-12-08T03:12:10.792Z,12.80
2022-12-08T03:14:38.972Z,13.85
2022-12-08T03:17:05.941Z,15.05
2022-12-08T03:19:38.837Z,13.15
2022-12-08T03:22:06.525Z,16.58
2022-12-08T03:24:37.119Z,15.02
2022-12-08T03:27:19.074Z,16.00
2022-12-08T03:29:46.617Z,15.35
2022-12-08T03:32:39.030Z,11.38
2022-12-08T03:35:09.853Z,12.88
2022-12-08T03:37:37.631Z,13.07
2022-12-08T03:40:06.517Z,12.70
2022-12-08T03:42:33.501Z,11.75
2022-12-08T03:45:00.165Z,12.70
2022-12-08T03:47:26.891Z,11.52
2022-12-08T03:49:53.539Z,13.52
2022-12-08T03:52:20.201Z,14.32
2022-12-08T03:54:46.886Z,14.70
2022-12-08T03:57:14.081Z,12.90
2022-12-08T03:59:40.832Z,11.43
2022-12-08T04:02:07.581Z,18.90
2022-12-08T04:04:34.353Z,11.77
2022-12-08T04:07:01.168Z,12.73
2022-12-08T04:09:27.850Z,10.95
2022-12-08T04:11:54.632Z,13.10
2022-12-08T04:14:21.453Z,13.48
2022-12-08T04:16:48.155Z,14.18
2022-12-08T04:19:15.331Z,13.00
2022-12-08T04:21:41.983Z,12.23
2022-12-08T04:24:09.531Z,9.80
2022-12-08T04:26:36.238Z,10.02
2022-12-08T04:29:02.939Z,10.13
2022-12-08T04:31:29.684Z,11.13
2022-12-08T04:33:56.439Z,11.68
2022-12-08T04:36:23.230Z,12.32
2022-12-08T04:38:50.058Z,8.65
2022-12-08T04:41:16.768Z,10.13
2022-12-08T04:43:44.395Z,11.35
2022-12-08T04:46:11.724Z,9.45
2022-12-08T04:48:39.270Z,10.27
2022-12-08T04:51:06.577Z,9.80
2022-12-08T04:53:33.477Z,7.95
2022-12-08T04:56:00.167Z,9.73
2022-12-08T04:58:26.897Z,10.95
2022-12-08T05:00:53.661Z,7.97
2022-12-08T05:03:26.866Z,9.73
2022-12-08T05:08:22.134Z,7.53
2022-12-08T05:10:48.824Z,7.68
2022-12-08T05:13:15.512Z,8.77
2022-12-08T05:15:42.234Z,9.50
2022-12-08T05:18:08.928Z,11.45
2022-12-08T05:20:35.915Z,6.15
2022-12-08T05:23:03.203Z,7.22
2022-12-08T05:25:29.905Z,6.93
2022-12-08T05:28:17.526Z,8.57
2022-12-08T05:30:43.383Z,7.93
2022-12-08T05:33:10.113Z,7.20
2022-12-08T05:35:36.855Z,7.65
2022-12-08T05:38:03.539Z,8.55
2022-12-08T05:40:30.234Z,7.30
2022-12-08T05:42:56.995Z,9.02
2022-12-08T05:45:23.673Z,6.65
2022-12-08T05:47:50.334Z,6.93
2022-12-08T05:50:17.083Z,9.98
2022-12-08T05:52:43.802Z,8.48
2022-12-08T05:55:10.473Z,8.05
2022-12-08T05:57:37.552Z,9.57
2022-12-08T06:00:05.325Z,7.03
2022-12-08T06:02:32.413Z,6.57
2022-12-08T06:04:59.274Z,9.65
2022-12-08T06:07:25.982Z,11.02
2022-12-08T06:09:52.771Z,6.10
2022-12-08T06:12:19.520Z,6.78
2022-12-08T06:14:46.198Z,7.20
2022-12-08T06:17:13.018Z,7.35
2022-12-08T06:19:39.726Z,7.20
2022-12-08T06:22:06.409Z,8.73
2022-12-08T06:24:33.104Z,10.00
2022-12-08T06:26:59.749Z,8.82
2022-12-08T06:29:26.494Z,7.28
2022-12-08T06:31:53.245Z,8.38
2022-12-08T06:34:19.911Z,9.68
2022-12-08T06:36:46.610Z,9.05
2022-12-08T06:39:13.313Z,7.50
2022-12-08T06:41:59.984Z,6.80
2022-12-08T06:44:26.641Z,7.68
2022-12-08T06:46:53.321Z,10.43
2022-12-08T06:49:20.093Z,11.43
2022-12-08T06:51:46.793Z,10.35
2022-12-08T06:54:13.509Z,10.73
2022-12-08T06:56:40.196Z,9.40
2022-12-08T06:59:06.883Z,7.50
2022-12-08T07:01:33.639Z,8.23
2022-12-08T07:04:00.363Z,7.70
2022-12-08T07:06:27.134Z,8.00
2022-12-08T07:08:53.816Z,6.13
2022-12-08T07:11:22.323Z,6.95
2022-12-08T07:13:49.885Z,8.90
2022-12-08T07:16:16.649Z,13.63
2022-12-08T07:18:43.991Z,6.78
2022-12-08T07:21:15.013Z,4.75
2022-12-08T07:23:42.327Z,9.60
2022-12-08T07:26:11.446Z,5.97
2022-12-08T07:28:40.281Z,6.05
2022-12-08T07:31:07.762Z,5.65
2022-12-08T07:33:35.964Z,8.15
2022-12-08T07:36:04.960Z,5.55
2022-12-08T07:38:32.172Z,5.28
2022-12-08T07:40:59.183Z,7.25
2022-12-08T07:43:26.288Z,7.45
2022-12-08T07:45:53.087Z,5.68
2022-12-08T07:48:19.985Z,8.18
2022-12-08T07:50:47.354Z,4.80
2022-12-08T07:53:14.277Z,6.47
2022-12-08T07:55:44.600Z,6.43
2022-12-08T07:58:11.532Z,7.53
2022-12-08T08:00:38.336Z,6.07
2022-12-08T08:03:05.201Z,6.15
2022-12-08T08:05:32.109Z,7.35
2022-12-08T08:07:58.873Z,7.00
2022-12-08T08:10:25.606Z,6.22
2022-12-08T08:12:52.303Z,7.88
2022-12-08T08:15:21.121Z,8.98
2022-12-08T08:17:51.537Z,7.32
2022-12-08T08:20:19.263Z,8.68
2022-12-08T08:22:47.199Z,7.03
2022-12-08T08:25:14.620Z,7.35
2022-12-08T08:27:42.239Z,6.82
2022-12-08T08:30:15.193Z,5.32
2022-12-08T08:32:45.181Z,6.18
2022-12-08T08:35:11.990Z,6.40
2022-12-08T08:37:38.692Z,8.73
2022-12-08T08:40:06.121Z,8.00
2022-12-08T08:42:33.024Z,6.88
2022-12-08T08:44:59.675Z,6.43
2022-12-08T08:47:26.418Z,6.15
2022-12-08T08:49:53.099Z,6.45
2022-12-08T08:52:19.957Z,5.55
2022-12-08T08:54:46.679Z,6.15
2022-12-08T08:57:13.352Z,4.63
2022-12-08T08:59:40.091Z,4.95
2022-12-08T09:02:07.077Z,5.10
2022-12-08T09:04:33.954Z,7.10
2022-12-08T09:07:02.057Z,5.53
2022-12-08T09:09:28.835Z,6.47
2022-12-08T09:11:55.646Z,5.50
2022-12-08T09:14:23.611Z,4.72
2022-12-08T09:16:50.371Z,5.20
2022-12-08T09:19:17.170Z,4.55
2022-12-08T09:21:43.923Z,4.43
2022-12-08T09:24:15.610Z,5.95
2022-12-08T09:26:43.816Z,4.60
2022-12-08T09:29:11.260Z,4.57
2022-12-08T09:31:38.340Z,3.67
2022-12-08T09:34:05.451Z,4.05
2022-12-08T09:36:32.303Z,4.50
2022-12-08T09:38:59.040Z,2.90
2022-12-08T09:41:43.322Z,6.13
2022-12-08T09:44:44.364Z,4.53
2022-12-08T09:47:37.912Z,5.55
2022-12-08T09:50:19.524Z,5.97
2022-12-08T09:53:21.424Z,4.28
2022-12-08T09:56:00.472Z,5.55
2022-12-08T09:58:47.590Z,4.93
2022-12-08T10:01:14.839Z,3.35
2022-12-08T10:03:42.316Z,3.63
2022-12-08T10:06:30.642Z,3.95
2022-12-08T10:09:21.204Z,3.72
2022-12-08T10:12:17.487Z,5.25
2022-12-08T10:14:47.499Z,5.00
2022-12-08T10:17:30.843Z,3.55
2022-12-08T10:20:00.512Z,3.83
2022-12-08T10:22:32.276Z,2.88
2022-12-08T10:25:04.402Z,3.85
2022-12-08T10:27:32.743Z,3.55
2022-12-08T10:29:59.408Z,4.85
2022-12-08T10:32:33.449Z,6.10
2022-12-08T10:35:09.010Z,3.83
2022-12-08T10:37:36.151Z,7.47
2022-12-08T10:40:08.962Z,6.85
2022-12-08T10:42:40.039Z,5.55
2022-12-08T10:45:09.886Z,6.25
2022-12-08T10:47:40.749Z,4.68
2022-12-08T10:50:10.564Z,7.70
2022-12-08T10:52:41.178Z,7.07
2022-12-08T10:55:19.501Z,4.07
2022-12-08T10:57:46.355Z,5.63
2022-12-08T11:00:20.101Z,4.40
2022-12-08T11:03:05.227Z,5.70
2022-12-08T11:08:00.004Z,4.45
2022-12-08T11:10:42.793Z,4.70
2022-12-08T11:13:26.172Z,4.15
2022-12-08T11:15:54.944Z,7.38
2022-12-08T11:18:28.920Z,4.88
2022-12-08T11:21:08.731Z,4.87
2022-12-08T11:23:36.782Z,3.63
2022-12-08T11:26:26.014Z,3.33
2022-12-08T11:28:52.797Z,7.40
2022-12-08T11:31:30.646Z,4.07
2022-12-08T11:33:57.637Z,3.63
2022-12-08T11:36:26.621Z,7.32
2022-12-08T11:38:57.642Z,4.68
2022-12-08T11:41:37.774Z,3.85
2022-12-08T11:44:24.128Z,4.07
2022-12-08T11:46:58.453Z,5.13
2022-12-08T11:50:02.292Z,6.18
2022-12-08T11:52:33.344Z,4.55
2022-12-08T11:55:05.699Z,3.60
2022-12-08T11:57:32.521Z,4.22
2022-12-08T12:00:00.103Z,4.95
2022-12-08T12:02:29.871Z,5.20
2022-12-08T12:05:08.945Z,3.50
2022-12-08T12:07:50.693Z,3.35
2022-12-08T12:10:28.085Z,3.88
2022-12-08T12:13:09.742Z,4.13
2022-12-08T12:16:14.176Z,4.15
2022-12-08T12:18:46.287Z,4.10
2022-12-08T12:21:25.868Z,4.35
2022-12-08T12:24:29.317Z,3.97
2022-12-08T12:27:02.098Z,4.18
2022-12-08T12:29:32.457Z,3.50
2022-12-08T12:32:06.358Z,3.97
2022-12-08T12:34:36.064Z,3.70
2022-12-08T12:37:17.225Z,3.55
2022-12-08T12:39:59.125Z,3.28
2022-12-08T12:42:49.137Z,3.25
2022-12-08T12:45:19.958Z,3.58
2022-12-08T12:47:56.884Z,2.83
2022-12-08T12:50:33.235Z,3.53
2022-12-08T12:53:06.892Z,3.00
2022-12-08T12:55:59.340Z,3.05
2022-12-08T12:58:31.896Z,3.30
2022-12-08T13:01:11.336Z,3.47
2022-12-08T13:03:41.688Z,4.05
2022-12-08T13:06:14.589Z,5.45
2022-12-08T13:08:50.713Z,3.35
2022-12-08T13:11:17.833Z,5.03
2022-12-08T13:14:03.186Z,7.43
2022-12-08T13:16:38.271Z,4.22
2022-12-08T13:19:10.239Z,4.35
2022-12-08T13:21:38.291Z,7.43
2022-12-08T13:24:13.828Z,4.10
2022-12-08T13:26:47.264Z,3.00
2022-12-08T13:29:24.523Z,3.47
2022-12-08T13:31:55.678Z,6.30
2022-12-08T13:34:42.137Z,4.18
2022-12-08T13:37:11.610Z,4.90
2022-12-08T13:39:52.384Z,6.15
2022-12-08T13:42:33.942Z,3.90
2022-12-08T13:48:26.997Z,3.00
2022-12-08T13:57:10.529Z,5.80
2022-12-08T13:59:35.652Z,3.50
2022-12-08T14:02:11.053Z,3.83
2022-12-08T14:05:09.468Z,4.00
2022-12-08T14:07:24.723Z,5.03
2022-12-08T14:09:51.534Z,5.22
2022-12-08T14:12:26.733Z,6.70
2022-12-08T14:15:07.200Z,5.10
2022-12-08T14:17:34.244Z,4.53
2022-12-08T14:20:02.204Z,5.18
2022-12-08T14:22:36.729Z,4.03
2022-12-08T14:25:05.086Z,4.47
2022-12-08T14:27:34.759Z,6.22
2022-12-08T14:30:02.670Z,5.13
2022-12-08T14:32:39.118Z,6.38
2022-12-08T14:35:08.831Z,6.25
2022-12-08T14:37:39.130Z,5.10
2022-12-08T14:40:25.876Z,5.25
2022-12-08T14:42:52.654Z,7.63
2022-12-08T14:45:19.552Z,10.13
2022-12-08T14:47:46.860Z,5.68
2022-12-08T14:50:35.437Z,5.50
2022-12-08T14:53:02.663Z,4.35
2022-12-08T14:55:35.035Z,4.53
2022-12-08T14:58:02.123Z,6.60
2022-12-08T15:00:29.090Z,5.78
2022-12-08T15:02:56.288Z,7.28
2022-12-08T15:05:28.751Z,6.97
2022-12-08T15:08:00.656Z,38.47
2022-12-08T15:10:30.847Z,96.00
2022-12-08T15:13:09.491Z,16.88
2022-12-08T15:15:57.082Z,18.25
2022-12-08T15:18:37.173Z,9.15
2022-12-08T15:21:12.785Z,7.50
2022-12-08T15:23:49.675Z,17.48
2022-12-08T15:26:22.156Z,10.55
2022-12-08T15:28:48.900Z,9.48
2022-12-08T15:31:16.621Z,12.07
2022-12-08T15:33:43.581Z,9.23
2022-12-08T15:36:11.067Z,8.70
2022-12-08T15:38:37.939Z,7.20
2022-12-08T15:41:05.716Z,7.15
2022-12-08T15:43:35.697Z,6.00
2022-12-08T15:46:02.698Z,7.03
2022-12-08T15:48:30.372Z,7.75
2022-12-08T15:50:57.654Z,9.25
2022-12-08T15:53:24.383Z,7.93
2022-12-08T15:56:26.525Z,6.85
2022-12-08T15:58:53.421Z,7.88
2022-12-08T16:01:20.615Z,8.20
2022-12-08T16:09:30.806Z,7.72
2022-12-08T16:12:16.301Z,7.33
2022-12-08T16:17:31.661Z,9.20
2022-12-08T16:19:58.914Z,9.70
2022-12-08T16:25:19.441Z,11.35
2022-12-08T16:28:23.292Z,8.38
2022-12-08T16:30:35.640Z,8.10
2022-12-08T16:33:02.612Z,7.38
2022-12-08T16:35:30.161Z,8.43
2022-12-08T16:37:56.885Z,9.02
2022-12-08T16:40:23.588Z,9.65
2022-12-08T16:42:50.596Z,11.65
2022-12-08T16:45:19.876Z,13.15
2022-12-08T16:47:51.766Z,11.38
2022-12-08T16:50:30.665Z,10.95
2022-12-08T16:53:03.232Z,15.38
2022-12-08T16:55:30.288Z,8.50
2022-12-08T16:57:57.064Z,13.63
2022-12-08T17:00:26.286Z,12.43
2022-12-08T17:02:53.772Z,11.13
2022-12-08T17:05:22.159Z,10.98
2022-12-08T17:07:50.640Z,11.77
2022-12-08T17:10:20.462Z,13.73
2022-12-08T17:12:47.369Z,11.75
2022-12-08T17:15:18.296Z,10.50
2022-12-08T17:17:45.336Z,11.77
2022-12-08T17:20:18.468Z,13.65
2022-12-08T17:22:45.509Z,14.25
2022-12-08T17:25:12.385Z,12.82
2022-12-08T17:27:40.128Z,12.70
2022-12-08T17:30:08.827Z,13.38
2022-12-08T17:32:37.166Z,15.48
2022-12-08T17:35:04.629Z,16.55
2022-12-08T17:37:31.589Z,16.95
2022-12-08T17:39:58.280Z,14.98
2022-12-08T17:42:27.101Z,14.70
2022-12-08T17:44:54.559Z,15.20
2022-12-08T17:47:21.637Z,15.73
2022-12-08T17:49:48.301Z,19.33
2022-12-08T17:52:15.071Z,16.85
2022-12-08T17:54:41.810Z,15.85
2022-12-08T17:57:08.943Z,20.38
2022-12-08T17:59:35.691Z,15.88
2022-12-08T18:02:02.655Z,12.88
2022-12-08T18:04:29.727Z,11.38
2022-12-08T18:06:59.295Z,12.15
2022-12-08T18:09:26.051Z,10.80
2022-12-08T18:11:52.748Z,27.88
2022-12-08T18:14:19.456Z,14.50
2022-12-08T18:16:46.924Z,16.38
2022-12-08T18:19:14.306Z,21.15
2022-12-08T18:21:42.109Z,12.63
2022-12-08T18:24:11.018Z,13.02
2022-12-08T18:26:39.652Z,11.23
2022-12-08T18:29:06.299Z,10.50
2022-12-08T18:31:33.058Z,11.35
2022-12-08T18:33:59.800Z,14.80
2022-12-08T18:36:27.017Z,14.10
2022-12-08T18:38:53.947Z,12.00
2022-12-08T18:41:26.336Z,31.73
2022-12-08T18:43:57.360Z,31.40
2022-12-08T18:46:24.718Z,18.10
2022-12-08T18:48:52.445Z,12.68
2022-12-08T18:51:22.164Z,12.02
2022-12-08T18:53:49.050Z,15.80
2022-12-08T18:56:30.119Z,15.23
2022-12-08T18:59:02.979Z,17.90
2022-12-08T19:01:35.683Z,13.05
2022-12-08T19:04:27.218Z,10.73
2022-12-08T19:06:52.233Z,14.20
2022-12-08T19:09:19.557Z,12.68
2022-12-08T19:11:46.542Z,11.55
2022-12-08T19:14:13.231Z,11.40
2022-12-08T19:16:39.938Z,11.90
2022-12-08T19:19:06.684Z,12.23
2022-12-08T19:21:33.897Z,12.25
2022-12-08T19:24:01.472Z,11.07
2022-12-08T19:26:28.723Z,12.57
2022-12-08T19:28:55.839Z,12.02
2022-12-08T19:31:22.787Z,15.18
2022-12-08T19:33:49.696Z,11.00
2022-12-08T19:36:18.791Z,16.17
2022-12-08T19:39:04.267Z,12.95
2022-12-08T19:41:50.124Z,10.68
2022-12-08T19:44:41.385Z,11.27
2022-12-08T19:47:08.367Z,9.75
2022-12-08T19:49:35.474Z,8.07
2022-12-08T19:52:02.181Z,6.07
2022-12-08T19:54:29.028Z,6.93
2022-12-08T19:56:55.832Z,7.50
2022-12-08T19:59:25.226Z,6.90
2022-12-08T20:01:56.225Z,8.25
2022-12-08T20:04:24.673Z,8.65
2022-12-08T20:06:52.519Z,7.90
2022-12-08T20:09:20.316Z,6.85
2022-12-08T20:11:47.056Z,6.78
2022-12-08T20:14:13.803Z,7.95
2022-12-08T20:16:41.745Z,6.13
2022-12-08T20:19:09.460Z,5.80
2022-12-08T20:21:36.157Z,5.70
2022-12-08T20:24:04.630Z,5.03
2022-12-08T20:26:31.402Z,6.63
2022-12-08T20:28:58.233Z,7.57
2022-12-08T20:31:27.546Z,5.85
2022-12-08T20:33:54.402Z,3.97
2022-12-08T20:36:21.936Z,8.68
2022-12-08T20:38:50.433Z,13.05
2022-12-08T20:41:17.724Z,10.57
2022-12-08T20:43:45.678Z,9.30
2022-12-08T20:46:15.209Z,9.85
2022-12-08T20:48:42.613Z,9.35
2022-12-08T20:51:12.811Z,8.05
2022-12-08T20:53:39.672Z,7.85
2022-12-08T20:56:07.096Z,6.15
2022-12-08T20:58:33.863Z,7.22
2022-12-08T21:01:00.589Z,10.13
2022-12-08T21:03:27.516Z,10.90
2022-12-08T21:05:54.539Z,11.25
2022-12-08T21:08:24.883Z,14.48
2022-12-08T21:10:55.753Z,8.80
2022-12-08T21:13:22.694Z,13.30
2022-12-08T21:15:49.457Z,10.05
2022-12-08T21:18:16.637Z,10.35
2022-12-08T21:20:43.765Z,9.07
2022-12-08T21:23:11.348Z,7.95
2022-12-08T21:25:42.700Z,12.23
2022-12-08T21:28:09.991Z,10.05
2022-12-08T21:30:39.794Z,9.93
2022-12-08T21:33:06.737Z,10.13
2022-12-08T21:35:33.797Z,10.13
2022-12-08T21:38:00.618Z,9.20
2022-12-08T21:40:27.390Z,10.27
2022-12-08T21:42:55.396Z,10.98
2022-12-08T21:45:22.327Z,10.45
2022-12-08T21:47:50.119Z,11.23
2022-12-08T21:50:18.080Z,11.80
2022-12-08T21:52:46.844Z,8.82
2022-12-08T21:55:15.375Z,7.97
2022-12-08T21:57:42.425Z,7.20
2022-12-08T22:00:12.056Z,9.50
2022-12-08T22:02:39.407Z,8.32
2022-12-08T22:05:06.799Z,5.18
2022-12-08T22:07:33.689Z,6.28
2022-12-08T22:10:00.517Z,5.15
2022-12-08T22:12:27.504Z,5.65
2022-12-08T22:14:54.435Z,6.50
2022-12-08T22:17:21.312Z,5.93
2022-12-08T22:19:48.185Z,5.20
2022-12-08T22:22:15.111Z,4.30
2022-12-08T22:24:42.065Z,6.30
2022-12-08T22:27:08.919Z,3.90
2022-12-08T22:29:35.768Z,6.15
2022-12-08T22:32:02.758Z,4.95
2022-12-08T22:34:29.714Z,5.05
2022-12-08T22:36:56.805Z,4.90
2022-12-08T22:39:23.963Z,5.20
2022-12-08T22:41:50.998Z,5.15
2022-12-08T22:44:17.802Z,4.28
2022-12-08T22:46:44.995Z,4.13
2022-12-08T22:49:12.087Z,4.90
2022-12-08T22:51:38.989Z,5.75
2022-12-08T22:54:06.026Z,3.95
2022-12-08T22:56:32.837Z,5.38
2022-12-08T22:58:59.889Z,3.78
2022-12-08T23:01:29.633Z,5.70
2022-12-08T23:03:57.490Z,6.57
2022-12-08T23:06:25.844Z,4.85
2022-12-08T23:08:52.980Z,5.07
2022-12-08T23:11:22.143Z,9.13
2022-12-08T23:13:49.065Z,4.65
2022-12-08T23:16:16.225Z,4.82
2022-12-08T23:18:44.974Z,5.18
2022-12-08T23:21:14.868Z,4.82
2022-12-08T23:23:41.941Z,4.97
2022-12-08T23:26:29.029Z,3.58
2022-12-08T23:28:56.895Z,4.22
2022-12-08T23:31:24.314Z,6.03
2022-12-08T23:33:51.549Z,3.90
2022-12-08T23:36:19.554Z,5.07
2022-12-08T23:38:46.429Z,3.28
2022-12-08T23:41:14.914Z,3.83
2022-12-08T23:43:46.778Z,2.75
2022-12-08T23:46:15.282Z,3.10
2022-12-08T23:48:42.468Z,4.10
2022-12-08T23:51:09.748Z,4.50
2022-12-08T23:53:36.834Z,3.65
2022-12-08T23:56:09.627Z,5.60
2022-12-08T23:58:37.095Z,4.35
